Time;durP1;ratioP1;P1;durP2;ratioP2;P2;SDS_P1;SDS_P2;PMS_P1;PMS_P2;Temp;Humidity;BMP_temperature;BMP_pressure;BME280_temperature;BME280_humidity;BME280_pressure;Samples;Min_cycle;Max_cycle;Signal;HPM_P1;HPM_P2
2022/10/08 13:20:34;;;;;;;104.97;98.97;;;18.10;99.90;;;;;;4938877;28;20738;-62
2022/10/08 13:23:01;;;;;;;99.30;93.80;;;17.60;99.90;;;;;;4939551;28;20820;-62
2022/10/08 13:25:32;;;;;;;95.35;89.72;;;17.20;99.90;;;;;;4938933;28;20437;-62
2022/10/08 13:28:10;;;;;;;95.35;90.03;;;17.40;99.90;;;;;;4937500;28;20718;-62
2022/10/08 13:30:35;;;;;;;97.70;92.27;;;17.50;99.90;;;;;;4938124;28;20402;-62
2022/10/08 13:33:11;;;;;;;89.90;84.80;;;17.30;99.90;;;;;;4936597;28;20430;-61
2022/10/08 13:35:37;;;;;;;87.93;83.13;;;16.90;99.90;;;;;;4934180;28;20484;-62
2022/10/08 13:38:06;;;;;;;86.38;81.57;;;16.90;99.90;;;;;;4933474;28;20957;-62
2022/10/08 13:40:32;;;;;;;84.38;79.63;;;16.70;99.90;;;;;;4937036;28;20846;-62
2022/10/08 13:42:58;;;;;;;89.90;84.53;;;16.40;99.90;;;;;;4935743;28;20793;-62
2022/10/08 13:45:26;;;;;;;91.65;86.30;;;16.40;99.90;;;;;;4933194;28;20413;-61
2022/10/08 13:47:52;;;;;;;88.43;83.57;;;16.20;99.90;;;;;;4935493;29;20485;-62
2022/10/08 13:50:19;;;;;;;91.75;86.55;;;16.30;99.90;;;;;;4935237;28;20390;-62
2022/10/08 13:52:52;;;;;;;94.47;89.07;;;16.10;99.90;;;;;;4944853;28;20444;-62
2022/10/08 13:55:30;;;;;;;99.73;93.93;;;15.80;99.90;;;;;;4946511;28;20405;-62
2022/10/08 13:57:58;;;;;;;102.03;96.25;;;15.70;99.90;;;;;;4946273;28;20447;-62
2022/10/08 14:00:25;;;;;;;103.40;97.50;;;15.60;99.90;;;;;;4946766;28;20670;-62
2022/10/08 14:02:52;;;;;;;98.40;92.70;;;15.50;99.90;;;;;;4943068;28;20394;-62
2022/10/08 14:05:18;;;;;;;104.90;99.00;;;15.30;99.90;;;;;;4947043;28;20551;-62
2022/10/08 14:07:47;;;;;;;101.07;95.38;;;15.30;99.90;;;;;;4947610;28;20484;-62
2022/10/08 14:10:13;;;;;;;103.70;97.80;;;15.30;99.90;;;;;;4948389;28;20405;-62
2022/10/08 14:12:39;;;;;;;104.97;99.13;;;15.50;99.90;;;;;;4944772;28;20460;-62
2022/10/08 14:15:06;;;;;;;95.05;89.88;;;16.10;99.90;;;;;;4938316;28;20393;-62
2022/10/08 14:17:31;;;;;;;87.20;82.40;;;16.50;99.90;;;;;;4937111;28;20426;-62
2022/10/08 14:19:57;;;;;;;85.80;80.93;;;16.60;99.90;;;;;;4938184;28;20706;-62
2022/10/08 14:22:23;;;;;;;86.43;81.53;;;16.30;99.90;;;;;;4938146;28;20409;-62
2022/10/08 14:24:50;;;;;;;88.30;83.30;;;16.30;99.90;;;;;;4937242;28;20417;-62
2022/10/08 14:27:15;;;;;;;85.75;80.97;;;16.20;99.90;;;;;;4936990;28;20397;-62
2022/10/08 14:29:41;;;;;;;88.73;83.53;;;15.90;99.90;;;;;;4938429;28;20386;-62
2022/10/08 14:32:08;;;;;;;91.77;86.47;;;15.80;99.90;;;;;;4936591;28;20394;-62
2022/10/08 14:34:34;;;;;;;92.13;86.68;;;15.70;99.90;;;;;;4933609;28;20487;-62
2022/10/08 14:37:00;;;;;;;100.68;95.05;;;15.50;99.90;;;;;;4934724;28;20470;-62
2022/10/08 14:39:26;;;;;;;101.17;95.33;;;15.40;99.90;;;;;;4935514;28;20404;-62
2022/10/08 14:41:52;;;;;;;98.50;92.80;;;15.50;99.90;;;;;;4938877;28;20401;-62
2022/10/08 14:44:21;;;;;;;101.30;95.57;;;15.40;99.90;;;;;;4939914;28;20416;-62
2022/10/08 14:46:47;;;;;;;108.72;102.25;;;15.50;99.90;;;;;;4940780;28;20397;-62
2022/10/08 14:49:13;;;;;;;98.18;92.55;;;15.90;99.90;;;;;;4937514;28;20410;-62
2022/10/08 14:51:39;;;;;;;93.68;88.30;;;16.20;99.90;;;;;;4935035;28;20619;-62
2022/10/08 14:54:05;;;;;;;95.90;90.47;;;16.40;99.90;;;;;;4935066;28;20402;-62
2022/10/08 14:56:31;;;;;;;98.20;92.45;;;16.70;99.90;;;;;;4935401;28;20816;-62
2022/10/08 14:58:57;;;;;;;91.55;86.13;;;16.60;99.90;;;;;;4935862;28;20390;-62
2022/10/08 15:01:22;;;;;;;98.57;92.97;;;16.60;99.90;;;;;;4931739;28;20845;-62
2022/10/08 15:03:48;;;;;;;100.30;94.57;;;16.50;99.90;;;;;;4932049;28;20657;-61
2022/10/08 15:06:13;;;;;;;98.75;93.13;;;16.20;99.90;;;;;;4932038;28;20454;-61
2022/10/08 15:08:39;;;;;;;92.07;86.77;;;16.10;99.90;;;;;;4932228;28;20429;-61
2022/10/08 15:11:05;;;;;;;101.38;95.40;;;16.00;99.90;;;;;;4932983;28;20408;-61
2022/10/08 15:13:31;;;;;;;102.65;96.55;;;15.80;99.90;;;;;;4932299;28;20772;-62
2022/10/08 15:15:57;;;;;;;103.22;97.13;;;15.80;99.90;;;;;;4936691;28;20573;-62
2022/10/08 15:18:22;;;;;;;101.43;95.38;;;15.70;99.90;;;;;;4936282;28;20405;-62
2022/10/08 15:31:19;;;;;;;105.18;98.95;;;15.80;99.90;;;;;;4939668;29;20741;-57
2022/10/08 15:33:48;;;;;;;98.27;92.40;;;16.00;99.90;;;;;;4940847;29;20472;-58
2022/10/08 15:36:19;;;;;;;100.07;93.95;;;15.90;99.90;;;;;;4941548;29;20458;-51
2022/10/08 15:38:45;;;;;;;96.13;90.68;;;15.90;99.90;;;;;;4937875;29;20585;-53
2022/10/08 15:41:13;;;;;;;93.13;87.45;;;15.70;99.90;;;;;;4937306;28;20401;-58
2022/10/08 15:43:39;;;;;;;104.47;98.45;;;15.60;99.90;;;;;;4937598;28;20468;-58
2022/10/08 15:46:15;;;;;;;107.93;101.53;;;15.40;99.90;;;;;;4937973;28;20432;-58
2022/10/08 15:48:40;;;;;;;112.15;105.80;;;15.30;99.90;;;;;;4936846;29;20492;-52
2022/10/08 15:51:07;;;;;;;104.77;98.37;;;15.10;99.90;;;;;;4936709;28;20412;-58
2022/10/08 15:53:36;;;;;;;107.07;101.13;;;14.90;99.90;;;;;;4936740;28;20666;-57
2022/10/08 15:56:03;;;;;;;110.00;103.40;;;14.50;99.90;;;;;;4935385;28;20485;-55
2022/10/08 15:58:33;;;;;;;103.07;97.38;;;14.20;99.90;;;;;;4937067;28;20612;-56
2022/10/08 16:01:07;;;;;;;102.38;96.55;;;14.10;99.90;;;;;;4936352;29;20401;-58
2022/10/08 16:03:38;;;;;;;107.75;101.72;;;14.00;99.90;;;;;;4932377;29;20406;-58
2022/10/08 16:06:05;;;;;;;108.65;102.43;;;14.00;99.90;;;;;;4933185;28;20643;-57
2022/10/08 16:08:32;;;;;;;103.03;97.25;;;13.90;99.90;;;;;;4931438;29;20558;-57
2022/10/08 16:11:09;;;;;;;109.45;103.43;;;13.90;99.90;;;;;;4931102;29;20394;-58
2022/10/08 16:13:35;;;;;;;99.37;93.67;;;14.00;99.90;;;;;;4930621;29;20620;-58
2022/10/08 16:16:01;;;;;;;99.57;93.87;;;14.00;99.90;;;;;;4932273;28;20410;-58
2022/10/08 16:18:27;;;;;;;102.20;96.30;;;13.90;99.90;;;;;;4931115;29;20590;-55
2022/10/08 16:20:52;;;;;;;101.32;95.72;;;13.90;99.90;;;;;;4930931;29;20615;-59
2022/10/08 16:23:18;;;;;;;101.55;95.85;;;13.90;99.90;;;;;;4931611;29;20635;-58
2022/10/08 16:25:43;;;;;;;96.37;90.87;;;13.80;99.90;;;;;;4931504;28;20401;-59
2022/10/08 16:28:09;;;;;;;99.57;93.90;;;13.80;99.90;;;;;;4930248;29;20773;-56
2022/10/08 16:30:34;;;;;;;88.03;83.03;;;13.80;99.90;;;;;;4929598;29;20434;-56
2022/10/08 16:33:00;;;;;;;88.20;83.27;;;13.70;99.90;;;;;;4931389;28;20397;-54
2022/10/08 16:35:26;;;;;;;83.07;78.40;;;13.80;99.90;;;;;;4933755;28;20684;-54
2022/10/08 16:37:53;;;;;;;91.72;86.07;;;13.80;99.90;;;;;;4931852;29;20408;-58
2022/10/08 16:40:19;;;;;;;91.45;86.20;;;13.80;99.90;;;;;;4932115;28;20789;-57
2022/10/08 16:42:44;;;;;;;82.53;77.83;;;13.70;99.90;;;;;;4935233;29;21006;-58
2022/10/08 16:45:10;;;;;;;78.45;73.60;;;13.60;99.90;;;;;;4937133;28;20797;-58
2022/10/08 16:47:35;;;;;;;75.87;71.13;;;13.50;99.90;;;;;;4937932;28;20764;-57
2022/10/08 16:50:01;;;;;;;75.07;70.53;;;13.40;99.90;;;;;;4937168;29;20918;-59
2022/10/08 16:52:26;;;;;;;80.07;75.30;;;13.40;99.90;;;;;;4937244;29;20390;-59
2022/10/08 16:54:54;;;;;;;81.90;77.20;;;13.30;99.90;;;;;;4935116;29;20465;-59
2022/10/08 16:57:19;;;;;;;79.28;74.85;;;13.30;99.90;;;;;;4931844;28;20698;-59
2022/10/08 16:59:47;;;;;;;77.00;72.50;;;13.30;99.90;;;;;;4930342;29;20931;-59
2022/10/08 17:02:13;;;;;;;63.70;60.13;;;13.30;99.90;;;;;;4930312;29;20938;-59
2022/10/08 17:04:38;;;;;;;80.97;76.47;;;13.30;99.90;;;;;;4928995;28;20634;-59
2022/10/08 17:07:06;;;;;;;73.15;69.07;;;13.40;99.90;;;;;;4928905;29;20398;-47
2022/10/08 17:09:32;;;;;;;76.13;71.85;;;13.40;99.90;;;;;;4930380;29;20695;-59
2022/10/08 17:11:57;;;;;;;57.73;54.33;;;13.40;99.90;;;;;;4929851;28;20410;-59
2022/10/08 17:14:23;;;;;;;66.40;62.43;;;13.20;99.90;;;;;;4929445;29;20425;-59
2022/10/08 17:16:49;;;;;;;70.75;66.72;;;13.10;99.90;;;;;;4930942;29;20408;-59
2022/10/08 17:19:15;;;;;;;60.63;57.08;;;13.10;99.90;;;;;;4930444;29;20512;-57
2022/10/08 17:21:44;;;;;;;64.47;60.42;;;13.20;99.90;;;;;;4931848;28;20464;-58
2022/10/08 17:24:13;;;;;;;67.00;62.92;;;13.20;99.90;;;;;;4932492;29;20422;-59
2022/10/08 17:26:46;;;;;;;66.88;63.00;;;13.10;99.90;;;;;;4932183;29;20477;-56
2022/10/08 17:29:12;;;;;;;62.75;59.00;;;13.00;99.90;;;;;;4932097;29;20464;-58
2022/10/08 17:31:38;;;;;;;67.17;62.93;;;13.10;99.90;;;;;;4933824;29;20402;-59
2022/10/08 17:34:04;;;;;;;64.47;60.47;;;13.00;99.90;;;;;;4935304;28;20433;-59
2022/10/08 17:36:33;;;;;;;67.50;63.58;;;13.10;99.90;;;;;;4933948;29;20423;-59
2022/10/08 17:39:51;;;;;;;73.50;69.15;;;13.00;99.90;;;;;;4937227;28;20468;-59
2022/10/08 17:42:16;;;;;;;70.15;65.63;;;13.00;99.90;;;;;;4937073;28;20381;-59
2022/10/08 17:44:42;;;;;;;72.97;68.50;;;12.90;99.90;;;;;;4937891;28;20784;-59
2022/10/08 17:47:08;;;;;;;74.90;70.50;;;13.00;99.90;;;;;;4936477;28;20390;-59
2022/10/08 17:49:33;;;;;;;71.45;67.05;;;13.00;99.90;;;;;;4937175;28;20579;-57
2022/10/08 17:52:02;;;;;;;79.20;74.38;;;13.10;99.90;;;;;;4932312;28;20461;-57
2022/10/08 17:55:05;;;;;;;73.40;69.18;;;13.10;99.90;;;;;;4931901;29;20546;-58
2022/10/08 17:57:31;;;;;;;77.63;72.93;;;13.10;99.90;;;;;;4925674;29;20623;-59
2022/10/08 17:59:56;;;;;;;81.50;76.70;;;13.10;99.90;;;;;;4924509;28;21059;-59
2022/10/08 18:02:22;;;;;;;76.30;71.60;;;13.00;99.90;;;;;;4923851;28;20650;-59
2022/10/08 18:04:47;;;;;;;79.30;74.80;;;13.00;99.90;;;;;;4927576;29;21126;-59
2022/10/08 18:07:13;;;;;;;83.30;78.43;;;13.10;99.90;;;;;;4929341;29;20436;-59
2022/10/08 18:09:54;;;;;;;78.22;73.72;;;13.10;99.90;;;;;;4933547;29;20394;-59
2022/10/08 18:12:20;;;;;;;83.15;78.20;;;13.00;99.90;;;;;;4936148;28;20674;-58
2022/10/08 18:14:46;;;;;;;72.85;68.38;;;13.00;99.90;;;;;;4941346;29;20410;-58
2022/10/08 18:17:12;;;;;;;73.18;68.78;;;12.90;99.90;;;;;;4945260;29;20401;-59
2022/10/08 18:19:38;;;;;;;69.65;65.47;;;12.90;99.90;;;;;;4948739;29;20766;-59
2022/10/08 18:22:03;;;;;;;74.95;70.55;;;13.00;99.90;;;;;;4951863;28;20409;-59
2022/10/08 18:24:30;;;;;;;71.97;67.37;;;13.00;99.90;;;;;;4953342;28;20488;-59
2022/10/08 18:26:58;;;;;;;73.78;69.28;;;12.90;99.90;;;;;;4950292;28;20398;-59
2022/10/08 18:29:23;;;;;;;72.88;68.50;;;12.90;99.90;;;;;;4945400;29;20927;-60
2022/10/08 18:31:49;;;;;;;84.07;79.07;;;12.80;99.90;;;;;;4943717;28;20382;-59
2022/10/08 18:34:17;;;;;;;82.78;77.78;;;12.80;99.90;;;;;;4943193;28;20852;-60
2022/10/08 18:36:43;;;;;;;85.22;80.03;;;12.80;99.90;;;;;;4943684;28;20697;-59
2022/10/08 18:39:12;;;;;;;79.93;75.15;;;12.90;99.90;;;;;;4941277;28;20429;-57
2022/10/08 18:41:47;;;;;;;82.57;77.45;;;12.90;99.90;;;;;;4941459;28;20424;-57
2022/10/08 18:44:22;;;;;;;73.83;69.47;;;12.80;99.90;;;;;;4939159;28;20452;-59
2022/10/08 18:46:48;;;;;;;78.80;74.15;;;12.80;99.90;;;;;;4937789;28;20627;-56
2022/10/08 18:49:19;;;;;;;75.35;70.95;;;12.70;99.90;;;;;;4937646;28;20500;-57
2022/10/08 18:51:47;;;;;;;71.97;67.57;;;12.50;99.90;;;;;;4937165;28;20408;-59
2022/10/08 18:54:13;;;;;;;74.25;69.75;;;12.50;99.90;;;;;;4937698;28;20389;-59
2022/10/08 18:56:40;;;;;;;77.47;72.83;;;12.50;99.90;;;;;;4937882;28;20398;-59
2022/10/08 18:59:12;;;;;;;69.38;65.07;;;12.50;99.90;;;;;;4940039;28;20390;-58
2022/10/08 19:01:40;;;;;;;77.77;72.83;;;12.40;99.90;;;;;;4939484;28;20661;-57
2022/10/08 19:04:10;;;;;;;72.00;67.70;;;12.50;99.90;;;;;;4937508;28;20706;-56
2022/10/08 19:06:38;;;;;;;70.25;66.00;;;12.40;99.90;;;;;;4938401;28;20390;-57
2022/10/08 19:09:05;;;;;;;65.57;61.70;;;12.40;99.90;;;;;;4936480;28;20949;-58
2022/10/08 19:11:34;;;;;;;70.43;65.78;;;12.40;99.90;;;;;;4936182;28;20421;-59
2022/10/08 19:14:02;;;;;;;71.10;66.80;;;12.40;99.90;;;;;;4934777;28;20394;-59
2022/10/08 19:16:28;;;;;;;69.93;65.40;;;12.40;99.90;;;;;;4933821;28;20456;-59
2022/10/08 19:18:57;;;;;;;58.15;54.72;;;12.40;99.90;;;;;;4931764;28;20408;-57
2022/10/08 19:21:24;;;;;;;63.97;59.78;;;12.40;99.90;;;;;;4932181;28;20479;-59
2022/10/08 19:23:50;;;;;;;66.10;62.13;;;12.50;99.90;;;;;;4932803;28;20535;-57
2022/10/08 19:26:15;;;;;;;61.33;57.67;;;12.50;99.90;;;;;;4932725;28;20886;-57
2022/10/08 19:28:47;;;;;;;65.07;61.15;;;12.60;99.90;;;;;;4931753;28;20387;-59
2022/10/08 19:31:15;;;;;;;59.10;55.25;;;12.60;99.90;;;;;;4933242;28;20779;-59
2022/10/08 19:33:40;;;;;;;61.13;57.28;;;12.50;99.90;;;;;;4936020;28;20430;-59
2022/10/08 19:36:06;;;;;;;65.43;61.23;;;12.50;99.90;;;;;;4937044;28;20433;-58
2022/10/08 19:38:33;;;;;;;57.43;53.70;;;12.40;99.90;;;;;;4938308;28;20678;-59
2022/10/08 19:41:00;;;;;;;65.70;61.65;;;12.40;99.90;;;;;;4940201;28;20405;-59
2022/10/08 19:43:25;;;;;;;61.50;57.67;;;12.30;99.90;;;;;;4943164;28;20448;-58
2022/10/08 19:45:51;;;;;;;57.27;53.60;;;12.30;99.90;;;;;;4940731;28;20409;-59
2022/10/08 19:48:17;;;;;;;67.80;63.30;;;12.30;99.90;;;;;;4939855;28;20417;-59
2022/10/08 19:50:42;;;;;;;61.33;57.37;;;12.30;99.90;;;;;;4939565;28;20581;-57
2022/10/08 19:53:08;;;;;;;70.35;66.05;;;12.30;99.90;;;;;;4938268;28;20456;-55
2022/10/08 19:55:37;;;;;;;75.85;70.78;;;12.30;99.90;;;;;;4938964;28;20401;-56
2022/10/08 19:58:03;;;;;;;65.80;61.57;;;12.30;99.90;;;;;;4940999;28;20721;-59
2022/10/08 20:00:29;;;;;;;65.32;61.22;;;12.30;99.90;;;;;;4939522;28;20397;-57
2022/10/08 20:02:54;;;;;;;68.78;64.38;;;12.30;99.90;;;;;;4938931;28;20402;-57
2022/10/08 20:05:20;;;;;;;76.43;71.70;;;12.30;99.90;;;;;;4939807;28;20432;-59
2022/10/08 20:07:46;;;;;;;63.33;59.43;;;12.20;99.90;;;;;;4940537;28;20586;-59
2022/10/08 20:10:14;;;;;;;88.43;82.97;;;12.20;99.90;;;;;;4943015;28;20441;-59
2022/10/08 20:12:40;;;;;;;84.50;79.10;;;12.20;99.90;;;;;;4941926;28;20385;-58
2022/10/08 20:15:08;;;;;;;85.20;79.90;;;12.20;99.90;;;;;;4943800;28;20409;-59
2022/10/08 20:17:34;;;;;;;78.40;73.22;;;12.10;99.90;;;;;;4942965;28;20689;-54
2022/10/08 20:20:00;;;;;;;77.20;72.50;;;12.10;99.90;;;;;;4940209;28;20406;-58
2022/10/08 20:22:26;;;;;;;85.47;80.30;;;12.00;99.90;;;;;;4941293;28;20468;-58
2022/10/08 20:24:52;;;;;;;80.95;75.80;;;12.00;99.90;;;;;;4938761;28;20584;-59
2022/10/08 20:27:18;;;;;;;79.35;74.32;;;12.00;99.90;;;;;;4939022;28;20582;-58
2022/10/08 20:29:43;;;;;;;79.57;74.33;;;12.00;99.90;;;;;;4939823;28;20421;-59
2022/10/08 20:32:09;;;;;;;73.50;68.53;;;12.00;99.90;;;;;;4937480;28;20401;-59
2022/10/08 20:34:34;;;;;;;75.72;70.85;;;11.90;99.90;;;;;;4942935;28;20693;-59
2022/10/08 20:37:01;;;;;;;74.85;70.20;;;11.90;99.90;;;;;;4942639;28;20701;-61
2022/10/08 20:39:28;;;;;;;74.40;69.63;;;11.90;99.90;;;;;;4944239;28;20484;-62
2022/10/08 20:41:54;;;;;;;69.32;64.55;;;11.80;99.90;;;;;;4943023;28;20791;-60
2022/10/08 20:44:19;;;;;;;74.05;69.32;;;11.90;99.90;;;;;;4943195;28;20413;-51
2022/10/08 20:46:47;;;;;;;68.82;64.32;;;11.90;99.90;;;;;;4943353;28;20441;-53
2022/10/08 20:49:13;;;;;;;63.75;59.58;;;11.90;99.90;;;;;;4943239;28;20492;-51
2022/10/08 20:51:40;;;;;;;62.87;58.67;;;11.90;99.90;;;;;;4945288;28;20402;-51
2022/10/08 20:54:09;;;;;;;70.00;65.40;;;11.80;99.90;;;;;;4947516;28;20482;-52
2022/10/08 20:56:36;;;;;;;68.43;64.00;;;11.80;99.90;;;;;;4948628;28;20390;-50
2022/10/08 20:59:02;;;;;;;62.45;58.15;;;11.80;99.90;;;;;;4946016;29;20401;-54
2022/10/08 21:01:30;;;;;;;59.80;55.88;;;11.70;99.90;;;;;;4947838;28;20397;-52
2022/10/08 21:03:57;;;;;;;66.10;61.73;;;11.70;99.90;;;;;;4946811;29;20414;-52
2022/10/08 21:06:25;;;;;;;66.13;61.72;;;11.70;99.90;;;;;;4944259;28;20748;-51
2022/10/08 21:08:53;;;;;;;62.78;58.88;;;11.60;99.90;;;;;;4943982;28;20639;-53
2022/10/08 21:11:21;;;;;;;62.92;58.85;;;11.60;99.90;;;;;;4948865;28;20390;-52
2022/10/08 21:13:47;;;;;;;60.72;56.85;;;11.60;99.90;;;;;;4950208;28;20405;-49
2022/10/08 21:16:15;;;;;;;65.90;61.60;;;11.60;99.90;;;;;;4950236;28;20394;-52
2022/10/08 21:18:41;;;;;;;61.03;57.15;;;11.50;99.90;;;;;;4950040;28;20442;-54
2022/10/08 21:21:09;;;;;;;59.13;55.17;;;11.50;99.90;;;;;;4948345;28;20475;-53
2022/10/08 21:23:35;;;;;;;65.70;61.53;;;11.50;99.90;;;;;;4951702;28;20517;-49
2022/10/08 21:26:22;;;;;;;66.22;61.78;;;11.40;99.90;;;;;;4952765;28;20508;-53
2022/10/08 21:28:49;;;;;;;57.78;54.13;;;11.30;99.90;;;;;;4951729;28;20386;-52
2022/10/08 21:31:17;;;;;;;56.10;52.20;;;11.30;99.90;;;;;;4950643;28;20390;-53
2022/10/08 21:33:45;;;;;;;54.17;50.63;;;11.30;99.90;;;;;;4951865;28;20404;-55
2022/10/08 21:36:16;;;;;;;50.58;47.00;;;11.40;99.90;;;;;;4953656;28;20382;-50
2022/10/08 21:38:42;;;;;;;54.72;51.33;;;11.40;99.90;;;;;;4953895;28;20397;-52
2022/10/08 21:41:11;;;;;;;52.95;49.38;;;11.40;99.90;;;;;;4952095;28;20394;-52
2022/10/08 21:43:45;;;;;;;52.85;49.47;;;11.40;99.90;;;;;;4954588;28;20382;-52
2022/10/08 21:46:14;;;;;;;50.90;47.43;;;11.40;99.90;;;;;;4953761;28;20390;-49
2022/10/08 21:48:40;;;;;;;56.03;52.22;;;11.40;99.90;;;;;;4953931;28;20448;-51
2022/10/08 21:51:14;;;;;;;50.78;47.58;;;11.40;99.90;;;;;;4952882;28;20477;-51
2022/10/08 21:53:44;;;;;;;49.22;45.90;;;11.40;99.90;;;;;;4952327;28;20653;-52
2022/10/08 21:56:13;;;;;;;54.60;50.85;;;11.30;99.90;;;;;;4951820;28;20671;-50
2022/10/08 21:58:44;;;;;;;53.67;50.40;;;11.40;99.90;;;;;;4950826;28;20473;-50
2022/10/08 22:01:28;;;;;;;51.60;48.38;;;11.40;99.90;;;;;;4952431;28;20449;-53
2022/10/08 22:03:55;;;;;;;49.67;46.55;;;11.40;99.90;;;;;;4951463;28;20477;-53
2022/10/08 22:06:22;;;;;;;51.10;47.73;;;11.40;99.90;;;;;;4950102;28;20481;-51
2022/10/08 22:08:48;;;;;;;51.67;48.42;;;11.40;99.90;;;;;;4949174;28;20386;-54
2022/10/08 22:11:14;;;;;;;51.42;48.03;;;11.40;99.90;;;;;;4946792;28;20488;-50
2022/10/08 22:13:40;;;;;;;51.00;47.65;;;11.40;99.90;;;;;;4943069;28;20485;-51
2022/10/08 22:16:07;;;;;;;50.45;47.17;;;11.40;99.90;;;;;;4938014;28;20541;-52
2022/10/08 22:18:34;;;;;;;51.93;48.50;;;11.40;99.90;;;;;;4921819;28;20414;-52
2022/10/08 22:28:25;;;;;;;50.43;46.90;;;11.20;99.90;;;;;;4934044;29;20377;-56
2022/10/08 22:30:53;;;;;;;47.08;43.85;;;11.10;99.90;;;;;;4925401;28;20428;-53
2022/10/08 22:33:19;;;;;;;49.05;45.55;;;11.10;99.90;;;;;;4940821;28;20409;-52
2022/10/08 22:35:45;;;;;;;49.00;45.27;;;11.00;99.90;;;;;;4949489;28;20401;-54
2022/10/08 22:38:11;;;;;;;50.30;46.80;;;11.00;99.90;;;;;;4950425;28;20386;-55
2022/10/08 22:40:37;;;;;;;44.77;41.87;;;11.00;99.90;;;;;;4952219;28;20405;-53
2022/10/08 22:43:03;;;;;;;46.10;42.93;;;10.90;99.90;;;;;;4954405;28;20393;-50
2022/10/08 22:45:28;;;;;;;47.93;44.57;;;11.00;99.90;;;;;;4952243;28;20784;-48
2022/10/08 22:47:54;;;;;;;48.20;44.77;;;10.90;99.90;;;;;;4952823;28;20429;-54
2022/10/08 22:50:19;;;;;;;48.00;44.65;;;11.00;99.90;;;;;;4951121;28;20481;-54
2022/10/08 22:52:48;;;;;;;49.33;45.97;;;11.00;99.90;;;;;;4948494;28;20382;-50
2022/10/08 22:55:31;;;;;;;42.92;40.10;;;11.00;99.90;;;;;;4943349;28;20397;-51
2022/10/08 22:57:56;;;;;;;45.22;42.40;;;11.00;99.90;;;;;;4941700;28;20394;-51
2022/10/08 23:00:22;;;;;;;49.70;46.37;;;11.00;99.90;;;;;;4942783;28;20405;-50
2022/10/08 23:02:47;;;;;;;46.07;43.23;;;11.10;99.90;;;;;;4942683;28;20401;-49
2022/10/08 23:05:13;;;;;;;46.72;43.60;;;11.10;99.90;;;;;;4945864;28;20417;-51
2022/10/08 23:07:38;;;;;;;50.50;47.20;;;11.10;99.90;;;;;;4946547;28;20394;-54
2022/10/08 23:10:04;;;;;;;48.63;45.23;;;11.00;99.90;;;;;;4947372;28;20415;-50
2022/10/08 23:12:30;;;;;;;52.72;48.95;;;11.00;99.90;;;;;;4943872;28;20646;-52
2022/10/08 23:14:55;;;;;;;44.97;41.92;;;11.10;99.90;;;;;;4944534;28;20461;-56
2022/10/08 23:17:21;;;;;;;47.83;44.53;;;11.10;99.90;;;;;;4944526;28;20402;-52
2022/10/08 23:19:46;;;;;;;48.23;45.13;;;11.10;99.90;;;;;;4945292;28;20667;-53
2022/10/08 23:22:12;;;;;;;49.20;46.00;;;11.10;99.90;;;;;;4947398;28;20517;-49
2022/10/08 23:24:37;;;;;;;49.03;45.93;;;11.00;99.90;;;;;;4947774;28;20421;-49
2022/10/08 23:27:03;;;;;;;43.00;40.17;;;11.00;99.90;;;;;;4948233;28;20592;-50
2022/10/08 23:29:28;;;;;;;46.50;43.20;;;10.90;99.90;;;;;;4949538;28;20481;-49
2022/10/08 23:31:54;;;;;;;48.27;45.10;;;11.00;99.90;;;;;;4949706;28;20746;-50
2022/10/08 23:34:20;;;;;;;50.58;47.10;;;10.90;99.90;;;;;;4948929;28;20606;-51
2022/10/08 23:36:46;;;;;;;44.58;41.55;;;11.00;99.90;;;;;;4949715;28;20416;-53
2022/10/08 23:39:14;;;;;;;44.75;41.50;;;10.90;99.90;;;;;;4950115;28;20667;-48
2022/10/08 23:41:40;;;;;;;41.55;38.50;;;10.80;99.90;;;;;;4947635;28;20559;-52
2022/10/08 23:44:07;;;;;;;41.03;38.03;;;10.80;99.90;;;;;;4949886;28;20682;-51
2022/10/08 23:46:33;;;;;;;42.67;39.58;;;10.80;99.90;;;;;;4950254;28;20947;-52
2022/10/08 23:48:59;;;;;;;42.25;39.10;;;10.90;99.90;;;;;;4949204;28;20421;-52
2022/10/08 23:51:27;;;;;;;43.92;40.92;;;10.90;99.90;;;;;;4951817;28;20444;-50
2022/10/08 23:53:52;;;;;;;44.05;41.05;;;10.90;99.90;;;;;;4950510;28;20404;-48
2022/10/08 23:56:19;;;;;;;42.78;39.95;;;10.90;99.90;;;;;;4953270;28;20410;-53
2022/10/08 23:58:44;;;;;;;44.95;42.17;;;11.00;99.90;;;;;;4952894;28;20392;-51
